Accueil
METAR-TAF:

METAR-TAF

Aéroports :

Cassel, Allemagne

latitude: 51-24N, longitude: 009-23E, altitude: 277 m

Observation

Le bulletin a été fait il y a 23 minutes, à 15:20 UTC
Vent 8 kt de nord
Température 22°C
Humidité 50%
Pression 1020 hPa
Visibilité 10 km ou plus
Quelques nuages à une hauteur de 4700 ft

METAR: EDVK 211520Z 35008KT 9999 FEW047 22/11 Q1020

Heure: 17:43 (15:43 UTC)

Prévision

Le bulletin a été fait il y a 1 heure et 43 minutes, à 14:00 UTC
Prévision valable du 21 à 15 UTC au 21 à 24 UTC
Vent 5 kt de nord
Visibilité: 9000 m
Quelques nuages à une hauteur de 4500 ft

TAF: EDVK 211400Z 2115/2124 36005KT 9000 FEW045

Observations et prévisions météorologiques de plus de 4000 aéroports (messages METAR et TAF).

Les stations disponibles sont représentées par des disques jaunes et rouges sur la carte.

Passer la souris dessus pour voir le nom de la station.

Cliquer dessus pour voir les observations et prévisions météorologiques.

Pour changer de carte: cliquez sur les boutons verts avec une croix noire pour zoomer, sur le bouton vert avec un tiret pour effectuer un zoom arrière, ou sur les flèches vertes pour les cartes adjacentes.


METAR-TAF: